createdAt,value
2019-02-04T00:01:08.990Z,102176.09
2019-02-04T00:03:38.161Z,102175.72
2019-02-04T00:06:07.401Z,102176.61
2019-02-04T00:08:36.746Z,102173.61
2019-02-04T00:11:06.191Z,102173.62
2019-02-04T00:13:35.350Z,102179.19
2019-02-04T00:16:04.493Z,102184.30
2019-02-04T00:18:33.682Z,102180.05
2019-02-04T00:21:03.502Z,102183.88
2019-02-04T00:23:32.668Z,102195.41
2019-02-04T00:26:01.823Z,102189.86
2019-02-04T00:28:31.013Z,102190.27
2019-02-04T00:31:00.223Z,102194.12
2019-02-04T00:33:29.401Z,102196.72
2019-02-04T00:35:58.877Z,102202.70
2019-02-04T00:38:28.239Z,102201.89
2019-02-04T00:40:57.382Z,102200.64
2019-02-04T00:43:26.538Z,102192.52
2019-02-04T00:45:55.707Z,102200.23
2019-02-04T00:48:24.877Z,102203.68
2019-02-04T00:50:54.162Z,102201.97
2019-02-04T00:53:23.305Z,102197.73
2019-02-04T00:55:52.498Z,102207.55
2019-02-04T00:58:21.961Z,102201.14
2019-02-04T01:00:51.130Z,102210.12
2019-02-04T01:03:20.372Z,102204.95
2019-02-04T01:05:49.553Z,102215.23
2019-02-04T01:08:18.681Z,102219.47
2019-02-04T01:10:47.872Z,102221.61
2019-02-04T01:13:17.229Z,102223.33
2019-02-04T01:15:46.368Z,102224.14
2019-02-04T01:18:15.511Z,102225.84
2019-02-04T01:20:44.956Z,102218.14
2019-02-04T01:23:14.240Z,102220.31
2019-02-04T01:25:43.497Z,102221.20
2019-02-04T01:28:12.680Z,102214.77
2019-02-04T01:30:42.345Z,102220.31
2019-02-04T01:33:11.892Z,102216.44
2019-02-04T01:35:41.027Z,102224.19
2019-02-04T01:38:10.956Z,102217.34
2019-02-04T01:40:40.465Z,102219.02
2019-02-04T01:43:09.621Z,102218.57
2019-02-04T01:45:38.803Z,102221.98
2019-02-04T01:48:08.000Z,102221.14
2019-02-04T01:50:37.157Z,102219.84
2019-02-04T01:53:06.393Z,102213.44
2019-02-04T01:55:35.574Z,102217.73
2019-02-04T01:58:04.794Z,102219.83
2019-02-04T02:00:36.291Z,102220.73
2019-02-04T02:03:05.442Z,102225.88
2019-02-04T02:05:35.615Z,102220.75
2019-02-04T02:08:04.893Z,102212.22
2019-02-04T02:10:34.061Z,102214.38
2019-02-04T02:13:03.202Z,102207.16
2019-02-04T02:15:32.683Z,102205.00
2019-02-04T02:18:01.819Z,102198.63
2019-02-04T02:20:31.170Z,102195.63
2019-02-04T02:23:00.368Z,102193.91
2019-02-04T02:25:29.552Z,102198.17
2019-02-04T02:27:58.712Z,102204.59
2019-02-04T02:30:30.479Z,102206.32
2019-02-04T02:32:59.833Z,102206.29
2019-02-04T02:35:29.016Z,102203.28
2019-02-04T02:37:58.647Z,102204.09
2019-02-04T02:40:33.305Z,102204.92
2019-02-04T02:43:02.770Z,102202.39
2019-02-04T02:45:32.180Z,102198.55
2019-02-04T02:48:01.358Z,102203.24
2019-02-04T02:50:30.870Z,102213.06
2019-02-04T02:53:00.169Z,102216.91
2019-02-04T02:55:29.341Z,102222.45
2019-02-04T02:57:58.867Z,102221.59
2019-02-04T03:00:32.026Z,102219.87
2019-02-04T03:03:01.197Z,102222.45
2019-02-04T03:05:30.387Z,102219.42
2019-02-04T03:07:59.633Z,102217.28
2019-02-04T03:10:31.255Z,102218.19
2019-02-04T03:13:00.571Z,102214.78
2019-02-04T03:15:29.734Z,102211.78
2019-02-04T03:17:58.985Z,102212.66
2019-02-04T03:20:28.426Z,102207.09
2019-02-04T03:22:57.567Z,102209.20
2019-02-04T03:25:27.022Z,102210.08
2019-02-04T03:27:56.209Z,102215.20
2019-02-04T03:30:32.994Z,102213.03
2019-02-04T03:33:02.596Z,102211.73
2019-02-04T03:35:31.925Z,102210.43
2019-02-04T03:38:02.213Z,102211.25
2019-02-04T03:40:32.802Z,102203.10
2019-02-04T03:43:02.010Z,102202.67
2019-02-04T03:45:31.201Z,102202.76
2019-02-04T03:48:06.432Z,102203.23
2019-02-04T03:50:31.366Z,102203.20
2019-02-04T03:53:00.537Z,102210.45
2019-02-04T03:55:29.666Z,102215.15
2019-02-04T03:57:59.271Z,102216.02
2019-02-04T04:00:31.018Z,102219.49
2019-02-04T04:03:00.374Z,102219.91
2019-02-04T04:05:29.856Z,102214.38
2019-02-04T04:07:59.095Z,102217.39
2019-02-04T04:10:28.638Z,102209.27
2019-02-04T04:12:57.909Z,102209.30
2019-02-04T04:15:27.076Z,102206.33
2019-02-04T04:17:56.283Z,102199.45
2019-02-04T04:20:25.438Z,102206.73
2019-02-04T04:22:54.723Z,102204.17
2019-02-04T04:25:23.884Z,102202.90
2019-02-04T04:27:53.093Z,102205.89
2019-02-04T04:30:27.081Z,102195.64
2019-02-04T04:32:57.016Z,102195.61
2019-02-04T04:35:26.216Z,102195.61
2019-02-04T04:37:55.573Z,102205.05
2019-02-04T04:40:24.888Z,102202.47
2019-02-04T04:42:54.027Z,102195.21
2019-02-04T04:45:24.374Z,102202.48
2019-02-04T04:47:53.901Z,102206.73
2019-02-04T04:50:23.117Z,102208.03
2019-02-04T04:52:52.303Z,102207.19
2019-02-04T04:55:23.477Z,102208.06
2019-02-04T04:57:52.721Z,102206.34
2019-02-04T05:00:24.352Z,102194.36
2019-02-04T05:02:53.635Z,102192.66
2019-02-04T05:05:22.800Z,102191.82
2019-02-04T05:07:52.175Z,102197.39
2019-02-04T05:10:22.017Z,102202.95
2019-02-04T05:12:51.417Z,102198.70
2019-02-04T05:15:22.879Z,102196.55
2019-02-04T05:17:52.865Z,102201.69
2019-02-04T05:20:22.472Z,102201.27
2019-02-04T05:22:51.637Z,102206.37
2019-02-04T05:25:20.815Z,102204.69
2019-02-04T05:27:50.280Z,102204.27
2019-02-04T05:30:27.695Z,102204.25
2019-02-04T05:32:56.881Z,102200.42
2019-02-04T05:35:26.051Z,102198.69
2019-02-04T05:37:55.230Z,102210.25
2019-02-04T05:40:24.436Z,102199.13
2019-02-04T05:42:53.587Z,102202.97
2019-02-04T05:45:22.767Z,102203.81
2019-02-04T05:47:51.914Z,102197.86
2019-02-04T05:50:22.203Z,102202.55
2019-02-04T05:52:51.414Z,102205.97
2019-02-04T05:55:22.010Z,102206.84
2019-02-04T05:57:51.211Z,102204.25
2019-02-04T06:00:35.469Z,102197.40
2019-02-04T06:03:04.659Z,102205.53
2019-02-04T06:05:33.803Z,102205.98
2019-02-04T06:08:03.136Z,102200.00
2019-02-04T06:10:32.360Z,102197.03
2019-02-04T06:13:02.184Z,102199.19
2019-02-04T06:15:31.440Z,102193.19
2019-02-04T06:18:00.597Z,102193.60
2019-02-04T06:20:29.959Z,102200.45
2019-02-04T06:22:59.102Z,102194.89
2019-02-04T06:25:28.307Z,102192.76
2019-02-04T06:27:57.459Z,102190.19
2019-02-04T06:30:26.627Z,102188.91
2019-02-04T06:32:55.829Z,102183.34
2019-02-04T06:35:25.053Z,102173.50
2019-02-04T06:37:54.432Z,102175.23
2019-02-04T06:40:25.290Z,102173.50
2019-02-04T06:42:54.482Z,102170.08
2019-02-04T06:45:23.676Z,102178.22
2019-02-04T06:47:52.794Z,102173.07
2019-02-04T06:50:22.818Z,102180.80
2019-02-04T06:52:51.980Z,102180.38
2019-02-04T06:55:30.498Z,102171.36
2019-02-04T06:57:59.690Z,102181.20
2019-02-04T07:00:28.932Z,102176.09
2019-02-04T07:02:58.476Z,102176.52
2019-02-04T07:05:27.624Z,102178.22
2019-02-04T07:07:56.791Z,102182.94
2019-02-04T07:10:26.400Z,102184.22
2019-02-04T07:12:55.583Z,102184.25
2019-02-04T07:15:24.728Z,102188.52
2019-02-04T07:17:54.126Z,102193.25
2019-02-04T07:20:24.955Z,102194.12
2019-02-04T07:22:54.302Z,102192.39
2019-02-04T07:25:24.525Z,102199.27
2019-02-04T07:27:53.930Z,102194.14
2019-02-04T07:30:24.997Z,102191.16
2019-02-04T07:32:54.667Z,102191.59
2019-02-04T07:35:23.988Z,102192.86
2019-02-04T07:37:53.145Z,102183.87
2019-02-04T07:40:28.265Z,102183.45
2019-02-04T07:42:57.467Z,102178.75
2019-02-04T07:45:26.606Z,102176.59
2019-02-04T07:47:55.774Z,102173.16
2019-02-04T07:50:24.951Z,102178.75
2019-02-04T07:52:54.330Z,102195.44
2019-02-04T07:55:23.476Z,102197.16
2019-02-04T07:57:52.635Z,102198.45
2019-02-04T08:00:24.296Z,102203.59
2019-02-04T08:02:53.749Z,102205.75
2019-02-04T08:05:23.295Z,102207.44
2019-02-04T08:07:52.507Z,102208.73
2019-02-04T08:10:24.214Z,102207.02
2019-02-04T08:13:00.819Z,102206.16
2019-02-04T08:15:26.912Z,102195.01
2019-02-04T08:17:56.719Z,102187.29
2019-02-04T08:20:25.989Z,102182.11
2019-02-04T08:22:55.156Z,102186.83
2019-02-04T08:25:26.000Z,102180.81
2019-02-04T08:27:55.219Z,102180.78
2019-02-04T08:30:29.429Z,102178.63
2019-02-04T08:32:58.579Z,102176.05
2019-02-04T08:35:27.717Z,102170.03
2019-02-04T08:37:56.912Z,102169.55
2019-02-04T08:40:27.108Z,102168.26
2019-02-04T08:42:56.535Z,102167.82
2019-02-04T08:45:27.924Z,102160.94
2019-02-04T08:47:57.105Z,102164.75
2019-02-04T08:50:26.658Z,102157.89
2019-02-04T08:52:56.110Z,102147.54
2019-02-04T08:55:25.389Z,102149.20
2019-02-04T08:57:54.916Z,102144.03
2019-02-04T09:00:27.460Z,102137.13
2019-02-04T09:02:56.655Z,102144.42
2019-02-04T09:05:25.879Z,102144.36
2019-02-04T09:07:55.194Z,102146.06
2019-02-04T09:10:29.726Z,102129.72
2019-02-04T09:12:59.361Z,102136.15
2019-02-04T09:15:28.775Z,102129.67
2019-02-04T09:17:58.746Z,102139.06
2019-02-04T09:20:28.123Z,102121.41
2019-02-04T09:22:58.301Z,102117.95
2019-02-04T09:25:27.717Z,102122.26
2019-02-04T09:27:57.404Z,102123.92
2019-02-04T09:30:27.258Z,102118.72
2019-02-04T09:32:57.290Z,102116.56
2019-02-04T09:35:26.423Z,102119.13
2019-02-04T09:37:55.583Z,102112.66
2019-02-04T09:40:30.492Z,102111.31
2019-02-04T09:42:59.734Z,102107.80
2019-02-04T09:45:28.860Z,102105.65
2019-02-04T09:47:58.184Z,102105.60
2019-02-04T09:50:28.145Z,102105.12
2019-02-04T09:52:57.490Z,102108.58
2019-02-04T09:55:29.619Z,102114.14
2019-02-04T09:57:58.770Z,102107.20
2019-02-04T10:00:30.005Z,102120.50
2019-02-04T10:02:59.163Z,102106.73
2019-02-04T10:05:28.359Z,102112.30
2019-02-04T10:07:57.546Z,102112.72
2019-02-04T10:10:27.458Z,102109.69
2019-02-04T10:12:57.088Z,102115.23
2019-02-04T10:15:28.503Z,102115.63
2019-02-04T10:17:57.686Z,102115.55
2019-02-04T10:20:34.016Z,102113.80
2019-02-04T10:22:58.135Z,102107.32
2019-02-04T10:25:29.849Z,102110.27
2019-02-04T10:27:59.032Z,102111.97
2019-02-04T10:30:28.208Z,102104.14
2019-02-04T10:32:57.355Z,102102.77
2019-02-04T10:35:26.519Z,102105.75
2019-02-04T10:37:55.960Z,102107.47
2019-02-04T10:40:25.936Z,102100.83
2019-02-04T10:42:55.409Z,102104.23
2019-02-04T10:45:24.612Z,102096.70
2019-02-04T10:47:53.768Z,102087.98
2019-02-04T10:50:25.415Z,102086.14
2019-02-04T10:52:54.622Z,102081.39
2019-02-04T10:55:23.870Z,102087.36
2019-02-04T10:57:53.059Z,102078.73
2019-02-04T11:00:25.312Z,102087.64
2019-02-04T11:02:54.844Z,102079.86
2019-02-04T11:05:26.393Z,102078.51
2019-02-04T11:07:55.855Z,102082.28
2019-02-04T11:10:30.840Z,102064.16
2019-02-04T11:13:00.055Z,102058.88
2019-02-04T11:15:29.196Z,102057.08
2019-02-04T11:17:58.664Z,102053.57
2019-02-04T11:20:28.912Z,102056.90
2019-02-04T11:22:58.232Z,102054.18
2019-02-04T11:25:27.641Z,102047.56
2019-02-04T11:27:57.040Z,102054.66
2019-02-04T11:30:40.615Z,102048.13
2019-02-04T11:33:10.284Z,102044.23
2019-02-04T11:35:39.724Z,102036.91
2019-02-04T11:38:09.394Z,102042.77
2019-02-04T11:40:39.237Z,102040.95
2019-02-04T11:43:08.427Z,102031.34
2019-02-04T11:45:37.935Z,102036.76
2019-02-04T11:48:09.573Z,102028.08
2019-02-04T11:50:39.255Z,102025.28
2019-02-04T11:53:08.361Z,102021.31
2019-02-04T11:55:37.875Z,102029.94
2019-02-04T11:58:08.194Z,102026.37
2019-02-04T12:00:37.889Z,102022.02
2019-02-04T12:03:08.059Z,102021.75
2019-02-04T12:05:37.551Z,102026.05
2019-02-04T12:08:06.845Z,102019.08
2019-02-04T12:10:39.275Z,102014.31
2019-02-04T12:13:08.424Z,102014.87
2019-02-04T12:15:37.658Z,102020.81
2019-02-04T12:18:07.129Z,102018.84
2019-02-04T12:20:36.269Z,102004.23
2019-02-04T12:23:06.042Z,102009.47
2019-02-04T12:25:35.517Z,102000.47
2019-02-04T12:28:04.675Z,102004.91
2019-02-04T12:30:38.623Z,102000.49
2019-02-04T12:33:09.661Z,101996.26
2019-02-04T12:35:38.921Z,101987.61
2019-02-04T12:38:08.155Z,101993.70
2019-02-04T12:40:37.828Z,101985.05
2019-02-04T12:43:07.140Z,101988.91
2019-02-04T12:45:36.744Z,101991.08
2019-02-04T12:48:06.243Z,101981.58
2019-02-04T12:50:35.691Z,101981.61
2019-02-04T12:53:05.106Z,101989.79
2019-02-04T12:55:34.626Z,101978.11
2019-02-04T12:58:05.299Z,101974.67
2019-02-04T13:00:34.661Z,101979.02
2019-02-04T13:03:03.842Z,101975.58
2019-02-04T13:05:36.073Z,101977.37
2019-02-04T13:08:07.340Z,101970.05
2019-02-04T13:10:36.525Z,101972.22
2019-02-04T13:13:08.770Z,101976.90
2019-02-04T13:15:38.320Z,101971.78
2019-02-04T13:18:07.762Z,101968.34
2019-02-04T13:20:36.949Z,101976.10
2019-02-04T13:23:06.352Z,101968.37
2019-02-04T13:25:35.488Z,101970.52
2019-02-04T13:28:05.682Z,101962.83
2019-02-04T13:30:35.035Z,101954.63
2019-02-04T13:33:04.209Z,101956.36
2019-02-04T13:35:33.367Z,101957.22
2019-02-04T13:38:02.573Z,101949.86
2019-02-04T13:40:31.755Z,101948.23
2019-02-04T13:43:04.188Z,101950.39
2019-02-04T13:45:33.380Z,101949.66
2019-02-04T13:48:02.516Z,101953.95
2019-02-04T13:50:32.323Z,101942.30
2019-02-04T13:53:01.476Z,101934.54
2019-02-04T13:55:32.071Z,101934.13
2019-02-04T13:58:01.655Z,101928.98
2019-02-04T14:00:32.506Z,101930.69
2019-02-04T14:03:01.978Z,101930.22
2019-02-04T14:05:31.849Z,101932.39
2019-02-04T14:08:01.368Z,101934.13
2019-02-04T14:10:35.603Z,101923.75
2019-02-04T14:13:05.163Z,101924.59
2019-02-04T14:15:37.009Z,101911.25
2019-02-04T14:18:07.333Z,101910.78
2019-02-04T14:20:36.635Z,101897.02
2019-02-04T14:23:05.860Z,101901.72
2019-02-04T14:25:34.981Z,101898.19
2019-02-04T14:28:05.417Z,101893.96
2019-02-04T14:30:36.899Z,101888.28
2019-02-04T14:33:06.656Z,101886.05
2019-02-04T14:35:36.075Z,101884.31
2019-02-04T14:38:06.848Z,101892.93
2019-02-04T14:40:36.025Z,101887.75
2019-02-04T14:43:21.995Z,101887.31
2019-02-04T14:46:41.894Z,101884.66
2019-02-04T14:49:48.151Z,101874.75
2019-02-04T14:52:58.072Z,101873.39
2019-02-04T14:56:08.963Z,101865.19
2019-02-04T14:58:58.944Z,101874.66
2019-02-04T15:02:15.252Z,101865.13
2019-02-04T15:05:37.374Z,101864.28
2019-02-04T15:08:42.465Z,101868.98
2019-02-04T15:11:44.563Z,101866.30
2019-02-04T15:15:03.117Z,101865.45
2019-02-04T15:17:40.209Z,101858.59
2019-02-04T15:20:52.659Z,101856.89
2019-02-04T15:23:47.349Z,101871.19
2019-02-04T15:26:44.801Z,101872.63
2019-02-04T15:29:24.301Z,101867.31
2019-02-04T15:32:20.889Z,101876.66
2019-02-04T15:35:34.286Z,101885.75
2019-02-04T15:38:35.146Z,101897.05
2019-02-04T15:41:45.150Z,101885.76
2019-02-04T15:44:38.050Z,101889.83
2019-02-04T15:47:18.121Z,101899.88
2019-02-04T15:50:23.747Z,101892.70
2019-02-04T15:52:52.901Z,101878.17
2019-02-04T15:55:22.273Z,101878.81
2019-02-04T15:57:51.413Z,101877.16
2019-02-04T16:00:25.784Z,101873.35
2019-02-04T16:02:55.171Z,101869.94
2019-02-04T16:05:24.613Z,101860.91
2019-02-04T16:07:54.083Z,101871.61
2019-02-04T16:10:23.227Z,101869.42
2019-02-04T16:12:52.377Z,101866.81
2019-02-04T16:15:21.857Z,101860.34
2019-02-04T16:17:51.008Z,101861.59
2019-02-04T16:20:22.860Z,101852.95
2019-02-04T16:22:58.459Z,101850.83
2019-02-04T16:25:23.243Z,101854.28
2019-02-04T16:27:52.388Z,101851.74
2019-02-04T16:30:22.481Z,101848.27
2019-02-04T16:32:52.940Z,101845.62
2019-02-04T16:35:22.261Z,101832.69
2019-02-04T16:37:51.613Z,101828.81
2019-02-04T16:40:22.625Z,101838.27
2019-02-04T16:42:51.975Z,101835.71
2019-02-04T16:45:22.249Z,101830.98
2019-02-04T16:47:51.818Z,101830.84
2019-02-04T16:50:26.138Z,101832.96
2019-02-04T16:52:55.526Z,101827.29
2019-02-04T16:55:24.651Z,101827.20
2019-02-04T16:57:54.546Z,101829.28
2019-02-04T17:00:28.902Z,101829.19
2019-02-04T17:02:58.121Z,101823.61
2019-02-04T17:05:27.752Z,101819.61
2019-02-04T17:07:57.017Z,101821.73
2019-02-04T17:10:26.574Z,101828.04
2019-02-04T17:12:56.021Z,101838.38
2019-02-04T17:15:26.186Z,101845.20
2019-02-04T17:17:55.346Z,101839.56
2019-02-04T17:20:30.284Z,101832.61
2019-02-04T17:22:59.527Z,101838.61
2019-02-04T17:25:28.728Z,101840.34
2019-02-04T17:27:57.881Z,101837.19
2019-02-04T17:30:27.395Z,101846.23
2019-02-04T17:32:57.110Z,101848.84
2019-02-04T17:35:26.351Z,101858.82
2019-02-04T17:37:55.505Z,101850.16
2019-02-04T17:40:25.133Z,101848.48
2019-02-04T17:42:54.801Z,101857.45
2019-02-04T17:45:23.992Z,101847.08
2019-02-04T17:47:53.436Z,101850.57
2019-02-04T17:50:22.906Z,101846.78
2019-02-04T17:52:52.225Z,101851.12
2019-02-04T17:55:22.927Z,101858.05
2019-02-04T17:57:52.521Z,101864.09
2019-02-04T18:00:42.400Z,101865.41
2019-02-04T18:03:11.577Z,101864.19
2019-02-04T18:05:40.739Z,101866.80
2019-02-04T18:08:10.177Z,101862.06
2019-02-04T18:10:39.440Z,101861.21
2019-02-04T18:13:08.628Z,101863.80
2019-02-04T18:15:37.826Z,101872.45
2019-02-04T18:18:07.422Z,101862.61
2019-02-04T18:20:36.674Z,101875.11
2019-02-04T18:23:07.065Z,101865.23
2019-02-04T18:25:36.948Z,101867.43
2019-02-04T18:28:06.644Z,101867.91
2019-02-04T18:30:36.282Z,101872.27
2019-02-04T18:33:05.809Z,101879.61
2019-02-04T18:35:35.568Z,101874.00
2019-02-04T18:38:04.734Z,101870.94
2019-02-04T18:40:33.977Z,101873.91
2019-02-04T18:43:03.216Z,101868.16
2019-02-04T18:45:33.780Z,101876.30
2019-02-04T18:48:04.888Z,101870.70
2019-02-04T18:50:34.978Z,101872.84
2019-02-04T18:53:04.322Z,101865.89
2019-02-04T18:55:33.964Z,101870.63
2019-02-04T18:58:03.159Z,101867.19
2019-02-04T19:00:32.492Z,101876.18
2019-02-04T19:03:03.428Z,101877.79
2019-02-04T19:05:32.992Z,101873.03
2019-02-04T19:08:04.787Z,101875.95
2019-02-04T19:10:34.315Z,101881.95
2019-02-04T19:13:03.570Z,101881.46
2019-02-04T19:15:33.299Z,101873.69
2019-02-04T19:18:05.961Z,101878.80
2019-02-04T19:20:36.356Z,101875.77
2019-02-04T19:23:06.072Z,101880.92
2019-02-04T19:25:35.339Z,101870.99
2019-02-04T19:28:04.865Z,101870.58
2019-02-04T19:30:47.339Z,101873.55
2019-02-04T19:33:16.569Z,101867.78
2019-02-04T19:35:45.863Z,101875.53
2019-02-04T19:38:15.081Z,101872.92
2019-02-04T19:40:46.205Z,101875.56
2019-02-04T19:43:15.956Z,101883.27
2019-02-04T19:45:45.190Z,101883.68
2019-02-04T19:48:15.909Z,101885.03
2019-02-04T19:50:45.160Z,101888.91
2019-02-04T19:53:15.898Z,101891.91
2019-02-04T19:55:45.496Z,101885.55
2019-02-04T19:58:15.088Z,101890.51
2019-02-04T20:00:45.854Z,101898.44
2019-02-04T20:03:15.830Z,101904.67
2019-02-04T20:05:47.439Z,101906.53
2019-02-04T20:08:16.798Z,101901.91
2019-02-04T20:10:46.841Z,101901.58
2019-02-04T20:13:18.935Z,101904.27
2019-02-04T20:15:48.181Z,101900.06
2019-02-04T20:18:17.567Z,101910.49
2019-02-04T20:20:48.153Z,101911.87
2019-02-04T20:23:18.787Z,101918.43
2019-02-04T20:25:48.652Z,101915.48
2019-02-04T20:28:18.410Z,101912.09
2019-02-04T20:30:47.717Z,101907.84
2019-02-04T20:33:17.042Z,101905.69
2019-02-04T20:35:47.784Z,101897.98
2019-02-04T20:38:17.623Z,101915.66
2019-02-04T20:40:47.309Z,101922.55
2019-02-04T20:43:16.646Z,101920.40
2019-02-04T20:45:46.365Z,101918.23
2019-02-04T20:48:16.100Z,101913.51
2019-02-04T20:50:46.893Z,101912.66
2019-02-04T20:53:16.376Z,101913.98
2019-02-04T20:55:46.998Z,101915.29
2019-02-04T20:58:16.320Z,101910.98
2019-02-04T21:00:46.004Z,101916.58
2019-02-04T21:03:16.620Z,101920.47
2019-02-04T21:05:45.958Z,101918.34
2019-02-04T21:08:15.205Z,101916.23
2019-02-04T21:10:44.598Z,101917.52
2019-02-04T21:13:13.892Z,101920.11
2019-02-04T21:15:43.363Z,101924.87
2019-02-04T21:18:12.568Z,101913.27
2019-02-04T21:20:41.792Z,101923.98
2019-02-04T21:23:13.113Z,101914.92
2019-02-04T21:25:42.612Z,101921.37
2019-02-04T21:28:11.813Z,101932.55
2019-02-04T21:30:42.900Z,101938.59
2019-02-04T21:33:12.172Z,101931.28
2019-02-04T21:35:41.550Z,101941.66
2019-02-04T21:38:11.271Z,101935.20
2019-02-04T21:40:40.573Z,101940.36
2019-02-04T21:43:09.896Z,101945.52
2019-02-04T21:45:39.069Z,101935.66
2019-02-04T21:48:08.337Z,101941.25
2019-02-04T21:50:37.512Z,101945.14
2019-02-04T21:53:07.492Z,101940.39
2019-02-04T21:55:36.648Z,101937.36
2019-02-04T21:58:06.557Z,101944.25
2019-02-04T22:00:37.948Z,101927.48
2019-02-04T22:03:07.250Z,101929.20
2019-02-04T22:05:36.450Z,101928.33
2019-02-04T22:08:06.645Z,101922.30
2019-02-04T22:10:35.821Z,101926.61
2019-02-04T22:13:05.423Z,101929.12
2019-02-04T22:15:35.056Z,101934.69
2019-02-04T22:18:04.398Z,101936.79
2019-02-04T22:20:33.930Z,101932.92
2019-02-04T22:23:03.257Z,101948.41
2019-02-04T22:25:32.460Z,101938.09
2019-02-04T22:28:01.765Z,101933.81
2019-02-04T22:30:31.304Z,101935.50
2019-02-04T22:33:00.544Z,101947.53
2019-02-04T22:35:29.716Z,101954.41
2019-02-04T22:37:59.148Z,101950.53
2019-02-04T22:40:30.068Z,101938.94
2019-02-04T22:42:59.994Z,101941.53
2019-02-04T22:45:29.191Z,101951.44
2019-02-04T22:47:58.334Z,101942.88
2019-02-04T22:50:31.336Z,101945.04
2019-02-04T22:53:02.738Z,101956.22
2019-02-04T22:55:32.565Z,101942.94
2019-02-04T22:58:02.673Z,101947.67
2019-02-04T23:00:54.733Z,101955.42
2019-02-04T23:03:24.518Z,101953.70
2019-02-04T23:05:53.927Z,101947.25
2019-02-04T23:08:26.101Z,101957.09
2019-02-04T23:10:55.214Z,101946.38
2019-02-04T23:13:24.426Z,101954.55
2019-02-04T23:15:54.235Z,101955.84
2019-02-04T23:18:23.790Z,101960.57
2019-02-04T23:20:52.939Z,101955.41
2019-02-04T23:23:22.214Z,101952.83
2019-02-04T23:25:51.399Z,101950.69
2019-02-04T23:28:20.673Z,101958.44
2019-02-04T23:30:50.092Z,101959.31
2019-02-04T23:33:19.493Z,101968.78
2019-02-04T23:35:48.681Z,101969.62
2019-02-04T23:38:18.043Z,101974.36
2019-02-04T23:40:47.230Z,101973.07
2019-02-04T23:43:16.370Z,101970.48
2019-02-04T23:45:45.649Z,101975.20
2019-02-04T23:48:14.955Z,101974.77
2019-02-04T23:50:44.271Z,101973.91
2019-02-04T23:53:13.406Z,101972.57
2019-02-04T23:55:54.084Z,101971.70
2019-02-04T23:58:13.481Z,101973.41
